Terminal Aerodrome Forecast
Issued by NWS Twin Cities, MN

Home | Current Version | Previous Version | Graphics & Text | Print | Product List | Glossary On
Versions: 1 2 3 4 5 6 7 8 9 10 11 12 13 14 15 16 17 18 19 20 21 22 23 24 25 26 27 28 29 30
000
FTUS43 KMPX 231132
TAFMSP
TAF
KMSP 231132Z 2312/2418 36012KT P6SM BKN020 BKN180
     FM231300 01010KT P6SM SCT025 BKN180
     FM231800 04007KT P6SM BKN040
     FM240000 03011KT P6SM OVC070
     FM240300 03013KT P6SM -SN OVC045
     FM240600 02015G25KT 3SM -SN OVC025
     FM240900 02016G26KT 2SM -SN OVC015=

USA.gov is the U.S. government's official web portal to all federal, state and local government web resources and services.